createdAt,value
2023-05-15T00:04:32.367Z,40.13
2023-05-15T00:07:35.949Z,39.69
2023-05-15T00:10:42.801Z,39.43
2023-05-15T00:13:50.582Z,39.24
2023-05-15T00:16:52.554Z,39.25
2023-05-15T00:19:57.293Z,39.17
2023-05-15T00:22:59.368Z,38.80
2023-05-15T00:26:01.505Z,38.28
2023-05-15T00:29:03.789Z,38.23
2023-05-15T00:32:06.881Z,38.11
2023-05-15T00:35:09.372Z,38.08
2023-05-15T00:38:12.038Z,38.23
2023-05-15T00:41:15.635Z,39.22
2023-05-15T00:44:19.826Z,39.97
2023-05-15T00:47:22.910Z,39.87
2023-05-15T00:50:26.058Z,39.24
2023-05-15T00:53:28.961Z,39.19
2023-05-15T00:56:33.564Z,39.38
2023-05-15T00:59:36.865Z,40.07
2023-05-15T01:02:38.994Z,40.33
2023-05-15T01:05:44.671Z,40.11
2023-05-15T01:08:47.646Z,39.96
2023-05-15T01:11:53.217Z,39.71
2023-05-15T01:14:56.748Z,39.73
2023-05-15T01:17:58.821Z,40.01
2023-05-15T01:21:10.038Z,39.95
2023-05-15T01:24:16.219Z,40.04
2023-05-15T01:27:39.355Z,40.18
2023-05-15T01:30:45.161Z,40.26
2023-05-15T01:33:54.405Z,40.44
2023-05-15T01:37:02.573Z,40.43
2023-05-15T01:40:08.735Z,40.61
2023-05-15T01:43:26.815Z,40.42
2023-05-15T01:46:31.644Z,40.44
2023-05-15T01:49:37.256Z,40.61
2023-05-15T01:52:44.234Z,40.54
2023-05-15T01:55:48.509Z,40.49
2023-05-15T01:58:52.303Z,40.61
2023-05-15T02:04:17.247Z,40.83
2023-05-15T02:07:20.581Z,40.81
2023-05-15T02:10:24.080Z,40.74
2023-05-15T02:13:30.132Z,40.81
2023-05-15T02:16:32.405Z,41.21
2023-05-15T02:19:34.530Z,41.38
2023-05-15T02:22:38.374Z,41.80
2023-05-15T02:26:24.659Z,41.40
2023-05-15T02:29:30.106Z,40.97
2023-05-15T02:32:56.816Z,40.76
2023-05-15T02:36:05.821Z,40.57
2023-05-15T02:39:13.698Z,40.41
2023-05-15T02:42:16.762Z,40.43
2023-05-15T02:45:20.990Z,40.46
2023-05-15T02:48:23.572Z,40.43
2023-05-15T02:51:26.045Z,40.63
2023-05-15T02:54:28.411Z,40.76
2023-05-15T02:57:30.773Z,40.93
2023-05-15T03:00:33.266Z,40.83
2023-05-15T03:03:35.597Z,40.91
2023-05-15T03:06:37.798Z,41.23
2023-05-15T03:09:40.000Z,41.75
2023-05-15T03:12:42.114Z,42.01
2023-05-15T03:15:45.897Z,41.74
2023-05-15T03:18:48.217Z,41.79
2023-05-15T03:21:50.873Z,42.02
2023-05-15T03:24:53.166Z,42.18
2023-05-15T03:27:55.438Z,41.97
2023-05-15T03:30:57.921Z,42.08
2023-05-15T03:34:00.126Z,42.43
2023-05-15T03:37:02.400Z,42.62
2023-05-15T03:40:05.395Z,42.67
2023-05-15T03:56:33.661Z,41.47
2023-05-15T03:59:35.923Z,40.85
2023-05-15T04:04:33.814Z,40.75
2023-05-15T04:07:36.850Z,40.37
2023-05-15T04:10:38.962Z,40.14
2023-05-15T04:13:41.121Z,39.99
2023-05-15T04:16:43.610Z,39.94
2023-05-15T04:19:47.690Z,40.03
2023-05-15T04:22:51.302Z,39.99
2023-05-15T04:25:53.518Z,40.12
2023-05-15T04:32:04.900Z,40.16
2023-05-15T04:35:09.632Z,40.05
2023-05-15T04:38:12.091Z,39.71
2023-05-15T04:41:14.278Z,39.02
2023-05-15T04:44:16.332Z,38.41
2023-05-15T04:47:18.343Z,38.00
2023-05-15T04:50:20.469Z,38.16
2023-05-15T04:53:22.767Z,38.15
2023-05-15T04:56:25.528Z,38.57
2023-05-15T04:59:30.562Z,38.73
2023-05-15T05:02:32.734Z,39.08
2023-05-15T05:05:35.381Z,39.33
2023-05-15T05:08:37.564Z,39.54
2023-05-15T05:11:43.996Z,39.77
2023-05-15T05:14:46.332Z,39.81
2023-05-15T05:17:48.338Z,40.45
2023-05-15T05:20:59.313Z,40.61
2023-05-15T05:24:01.689Z,40.45
2023-05-15T05:27:05.114Z,40.09
2023-05-15T05:30:08.258Z,39.62
2023-05-15T05:33:10.486Z,39.85
2023-05-15T05:36:12.788Z,41.07
2023-05-15T05:39:16.507Z,41.54
2023-05-15T05:42:21.443Z,41.57
2023-05-15T05:45:25.363Z,41.44
2023-05-15T05:48:28.761Z,41.23
2023-05-15T05:51:31.632Z,40.80
2023-05-15T05:54:34.111Z,39.97
2023-05-15T05:57:36.220Z,38.84
2023-05-15T06:04:17.579Z,37.72
2023-05-15T06:07:20.904Z,37.14
2023-05-15T06:10:23.392Z,36.94
2023-05-15T06:13:25.748Z,36.69
2023-05-15T06:16:27.849Z,36.64
2023-05-15T06:19:30.647Z,36.69
2023-05-15T06:22:33.404Z,36.63
2023-05-15T06:25:36.521Z,36.83
2023-05-15T06:28:38.760Z,36.76
2023-05-15T06:31:41.353Z,37.19
2023-05-15T06:34:44.530Z,37.16
2023-05-15T06:37:50.654Z,36.73
2023-05-15T06:40:52.893Z,36.45
2023-05-15T06:43:55.507Z,35.77
2023-05-15T06:46:58.766Z,35.14
2023-05-15T06:50:01.105Z,34.99
2023-05-15T06:53:03.387Z,34.15
2023-05-15T06:56:07.193Z,33.12
2023-05-15T06:59:09.562Z,32.13
2023-05-15T07:02:11.904Z,31.33
2023-05-15T07:05:14.923Z,30.76
2023-05-15T07:08:17.678Z,30.27
2023-05-15T07:11:19.945Z,30.06
2023-05-15T07:14:22.074Z,29.82
2023-05-15T07:17:24.760Z,29.55
2023-05-15T07:20:30.300Z,29.11
2023-05-15T07:23:34.531Z,28.79
2023-05-15T07:26:46.579Z,28.84
2023-05-15T07:29:59.532Z,28.99
2023-05-15T07:33:01.892Z,28.62
2023-05-15T07:36:04.806Z,28.35
2023-05-15T07:39:07.311Z,28.11
2023-05-15T07:42:09.560Z,28.18
2023-05-15T07:45:12.378Z,28.59
2023-05-15T07:48:20.292Z,28.74
2023-05-15T07:51:22.407Z,28.87
2023-05-15T07:54:24.582Z,28.39
2023-05-15T07:57:26.916Z,28.17
2023-05-15T08:00:30.003Z,28.43
2023-05-15T08:03:32.414Z,28.14
2023-05-15T08:06:35.405Z,28.00
2023-05-15T08:09:37.799Z,27.97
2023-05-15T08:12:46.302Z,28.31
2023-05-15T08:15:48.368Z,28.46
2023-05-15T08:18:53.753Z,28.37
2023-05-15T08:21:56.051Z,27.73
2023-05-15T08:25:00.515Z,27.61
2023-05-15T08:28:03.261Z,26.85
2023-05-15T08:31:05.338Z,26.37
2023-05-15T08:34:07.336Z,26.40
2023-05-15T08:37:09.316Z,26.19
2023-05-15T08:40:12.599Z,26.00
2023-05-15T08:43:17.884Z,26.26
2023-05-15T08:46:20.329Z,26.07
2023-05-15T08:49:25.457Z,26.39
2023-05-15T08:52:28.916Z,26.75
2023-05-15T08:55:31.068Z,26.70
2023-05-15T08:58:33.945Z,25.35
2023-05-15T09:01:36.516Z,25.18
2023-05-15T09:04:38.597Z,25.55
2023-05-15T09:07:42.906Z,25.34
2023-05-15T09:10:45.977Z,25.06
2023-05-15T09:13:47.912Z,25.19
2023-05-15T09:16:53.691Z,25.30
2023-05-15T09:19:56.089Z,24.54
2023-05-15T09:22:59.855Z,24.47
2023-05-15T09:26:02.199Z,24.94
2023-05-15T09:29:05.338Z,24.68
2023-05-15T09:32:13.000Z,24.42
2023-05-15T09:35:34.986Z,24.05
2023-05-15T09:38:48.687Z,23.81
2023-05-15T09:41:54.758Z,23.44
2023-05-15T09:44:57.006Z,23.48
2023-05-15T09:48:06.938Z,23.57
2023-05-15T09:51:20.281Z,23.82
2023-05-15T09:54:24.320Z,23.67
2023-05-15T09:57:26.788Z,23.50
2023-05-15T10:04:16.740Z,23.29
2023-05-15T10:07:31.693Z,22.88
2023-05-15T10:10:33.957Z,22.40
2023-05-15T10:13:37.241Z,22.56
2023-05-15T10:16:40.937Z,22.30
2023-05-15T10:19:56.815Z,22.35
2023-05-15T10:23:04.176Z,22.22
2023-05-15T10:26:14.570Z,22.63
2023-05-15T10:29:21.403Z,23.05
2023-05-15T10:32:26.260Z,23.07
2023-05-15T10:35:29.479Z,22.76
2023-05-15T10:38:33.215Z,22.93
2023-05-15T10:41:40.378Z,23.15
2023-05-15T10:44:42.730Z,23.38
2023-05-15T10:47:45.966Z,23.43
2023-05-15T10:50:52.441Z,22.92
2023-05-15T10:53:56.824Z,22.09
2023-05-15T10:56:59.156Z,20.98
2023-05-15T11:00:02.493Z,20.28
2023-05-15T11:03:05.690Z,20.13
2023-05-15T11:06:10.019Z,20.02
2023-05-15T11:09:28.128Z,19.97
2023-05-15T11:12:56.940Z,20.11
2023-05-15T11:15:59.176Z,20.27
2023-05-15T11:19:01.296Z,20.88
2023-05-15T11:22:09.383Z,21.26
2023-05-15T11:25:16.189Z,20.58
2023-05-15T11:28:22.754Z,19.71
2023-05-15T11:31:31.204Z,19.21
2023-05-15T11:34:35.098Z,19.22
2023-05-15T11:37:49.288Z,18.59
2023-05-15T11:41:18.554Z,17.88
2023-05-15T11:44:24.836Z,17.57
2023-05-15T11:47:30.086Z,17.16
2023-05-15T11:50:34.483Z,17.25
2023-05-15T11:53:39.944Z,16.62
2023-05-15T11:56:47.112Z,16.13
2023-05-15T11:59:49.300Z,16.07
2023-05-15T12:02:51.797Z,15.77
2023-05-15T12:05:59.052Z,15.88
2023-05-15T12:09:02.442Z,15.89
2023-05-15T12:12:06.824Z,15.95
2023-05-15T12:15:11.246Z,16.12
2023-05-15T12:18:14.365Z,16.53
2023-05-15T12:21:17.511Z,16.91
2023-05-15T12:24:21.908Z,17.40
2023-05-15T12:27:24.065Z,17.11
2023-05-15T12:30:27.237Z,16.87
2023-05-15T12:33:29.945Z,16.99
2023-05-15T12:36:32.052Z,17.20
2023-05-15T12:39:34.184Z,16.97
2023-05-15T12:42:44.288Z,17.16
2023-05-15T12:45:47.113Z,17.10
2023-05-15T12:48:50.155Z,17.55
2023-05-15T12:51:52.638Z,17.72
2023-05-15T12:54:55.004Z,17.26
2023-05-15T12:58:02.448Z,17.01
2023-05-15T13:01:04.776Z,17.11
2023-05-15T13:04:07.723Z,17.52
2023-05-15T13:07:10.424Z,17.76
2023-05-15T13:10:13.392Z,17.80
2023-05-15T13:13:17.003Z,17.70
2023-05-15T13:16:25.477Z,17.64
2023-05-15T13:19:27.791Z,17.94
2023-05-15T13:22:30.426Z,18.17
2023-05-15T13:25:32.740Z,18.21
2023-05-15T13:28:35.161Z,18.45
2023-05-15T13:31:37.337Z,18.77
2023-05-15T13:34:39.887Z,19.18
2023-05-15T13:37:42.087Z,19.33
2023-05-15T13:40:44.217Z,19.54
2023-05-15T13:43:47.986Z,19.35
2023-05-15T13:46:50.030Z,19.76
2023-05-15T13:49:52.678Z,19.62
2023-05-15T13:52:55.048Z,19.53
2023-05-15T13:55:57.249Z,19.58
2023-05-15T13:58:59.492Z,19.56
2023-05-15T14:04:16.233Z,18.87
2023-05-15T14:07:18.623Z,18.96
2023-05-15T14:10:20.879Z,19.20
2023-05-15T14:13:24.168Z,19.52
2023-05-15T14:16:26.264Z,19.29
2023-05-15T14:19:28.868Z,19.05
2023-05-15T14:22:31.186Z,18.39
2023-05-15T14:25:33.379Z,17.01
2023-05-15T14:28:35.499Z,16.73
2023-05-15T14:31:37.649Z,17.34
2023-05-15T14:34:40.823Z,17.49
2023-05-15T14:37:43.730Z,17.16
2023-05-15T14:40:45.779Z,16.83
2023-05-15T14:43:47.863Z,16.55
2023-05-15T14:47:09.447Z,16.64
2023-05-15T14:50:11.507Z,16.41
2023-05-15T14:53:13.787Z,16.21
2023-05-15T14:56:15.997Z,16.15
2023-05-15T14:59:18.241Z,16.22
2023-05-15T15:02:20.347Z,16.25
2023-05-15T15:05:22.614Z,16.44
2023-05-15T15:08:25.367Z,16.43
2023-05-15T15:11:27.420Z,16.52
2023-05-15T15:14:30.583Z,16.68
2023-05-15T15:17:32.834Z,16.47
2023-05-15T15:20:35.784Z,16.75
2023-05-15T15:23:38.456Z,16.96
2023-05-15T15:26:40.919Z,17.17
2023-05-15T15:29:43.122Z,17.38
2023-05-15T15:32:45.942Z,17.59
2023-05-15T15:35:48.488Z,18.03
2023-05-15T15:38:51.060Z,18.07
2023-05-15T15:41:53.331Z,18.37
2023-05-15T15:44:56.125Z,18.42
2023-05-15T15:47:58.659Z,18.95
2023-05-15T15:51:00.932Z,19.01
2023-05-15T15:54:03.252Z,18.77
2023-05-15T15:57:06.047Z,19.05
2023-05-15T16:00:09.773Z,19.27
2023-05-15T16:03:12.254Z,19.51
2023-05-15T16:06:14.866Z,19.93
2023-05-15T16:09:20.238Z,20.11
2023-05-15T16:12:22.327Z,20.34
2023-05-15T16:15:24.821Z,20.84
2023-05-15T16:18:27.064Z,21.07
2023-05-15T16:21:29.329Z,21.11
2023-05-15T16:24:31.401Z,21.35
2023-05-15T16:27:33.500Z,21.55
2023-05-15T16:33:42.652Z,22.12
2023-05-15T16:36:45.039Z,22.43
2023-05-15T16:39:47.071Z,22.75
2023-05-15T16:42:49.181Z,22.88
2023-05-15T16:45:51.825Z,23.10
2023-05-15T16:48:54.159Z,23.37
2023-05-15T16:51:56.595Z,23.50
2023-05-15T16:54:58.993Z,23.61
2023-05-15T16:58:01.223Z,24.00
2023-05-15T17:01:03.312Z,24.40
2023-05-15T17:04:06.889Z,24.81
2023-05-15T17:07:09.506Z,25.28
2023-05-15T17:10:12.940Z,25.47
2023-05-15T17:13:15.259Z,26.06
2023-05-15T17:16:17.367Z,26.55
2023-05-15T17:19:19.754Z,27.03
2023-05-15T17:22:22.660Z,27.56
2023-05-15T17:25:25.185Z,28.03
2023-05-15T17:28:27.633Z,28.30
2023-05-15T17:31:30.200Z,28.64
2023-05-15T17:34:32.442Z,28.84
2023-05-15T17:37:34.746Z,29.13
2023-05-15T17:40:36.975Z,29.47
2023-05-15T17:43:39.092Z,29.70
2023-05-15T17:46:41.272Z,29.85
2023-05-15T17:49:43.342Z,29.99
2023-05-15T17:52:45.464Z,30.15
2023-05-15T17:55:48.496Z,30.45
2023-05-15T17:58:50.772Z,30.59
2023-05-15T18:04:36.364Z,31.07
2023-05-15T18:07:38.846Z,31.23
2023-05-15T18:10:40.824Z,31.32
2023-05-15T18:13:43.604Z,31.41
2023-05-15T18:16:45.716Z,31.44
2023-05-15T18:19:51.113Z,31.76
2023-05-15T18:22:53.081Z,31.76
2023-05-15T18:25:55.048Z,31.76
2023-05-15T18:28:57.287Z,31.98
2023-05-15T18:31:59.311Z,31.99
2023-05-15T18:35:02.271Z,31.98
2023-05-15T18:38:04.870Z,32.09
2023-05-15T18:41:07.034Z,32.18
2023-05-15T18:44:10.424Z,32.26
2023-05-15T18:47:12.673Z,32.36
2023-05-15T18:50:15.857Z,32.38
2023-05-15T18:53:18.108Z,32.54
2023-05-15T18:56:21.284Z,32.54
2023-05-15T18:59:23.557Z,32.69
2023-05-15T19:02:26.193Z,32.93
2023-05-15T19:05:28.518Z,33.09
2023-05-15T19:08:30.698Z,33.26
2023-05-15T19:11:32.979Z,33.40
2023-05-15T19:14:35.651Z,33.43
2023-05-15T19:17:38.296Z,33.52
2023-05-15T19:20:41.236Z,33.63
2023-05-15T19:23:43.463Z,33.93
2023-05-15T19:26:45.855Z,33.93
2023-05-15T19:29:47.946Z,34.10
2023-05-15T19:32:49.993Z,34.17
2023-05-15T19:35:52.055Z,34.46
2023-05-15T19:38:54.251Z,34.58
2023-05-15T19:41:57.535Z,34.74
2023-05-15T19:44:59.579Z,34.83
2023-05-15T19:48:01.657Z,34.89
2023-05-15T19:51:03.840Z,34.87
2023-05-15T19:54:06.799Z,35.02
2023-05-15T19:57:09.689Z,34.85
2023-05-15T20:00:13.120Z,34.87
2023-05-15T20:03:15.676Z,34.99
2023-05-15T20:06:18.019Z,35.19
2023-05-15T20:09:20.448Z,35.24
2023-05-15T20:12:22.631Z,35.48
2023-05-15T20:15:25.271Z,35.40
2023-05-15T20:18:30.053Z,35.46
2023-05-15T20:21:33.881Z,35.61
2023-05-15T20:24:35.993Z,35.85
2023-05-15T20:27:38.476Z,35.93
2023-05-15T20:30:41.232Z,36.06
2023-05-15T20:33:43.488Z,36.25
2023-05-15T20:36:45.718Z,36.42
2023-05-15T20:39:47.928Z,36.72
2023-05-15T20:42:51.161Z,36.82
2023-05-15T20:45:53.724Z,37.11
2023-05-15T20:48:56.225Z,37.29
2023-05-15T20:51:58.193Z,37.54
2023-05-15T20:55:00.859Z,37.72
2023-05-15T20:58:03.769Z,37.90
2023-05-15T21:01:06.566Z,38.10
2023-05-15T21:04:09.210Z,38.42
2023-05-15T21:07:11.400Z,38.81
2023-05-15T21:10:13.492Z,38.96
2023-05-15T21:13:17.289Z,39.01
2023-05-15T21:16:19.672Z,39.26
2023-05-15T21:19:22.290Z,39.57
2023-05-15T21:22:24.646Z,39.87
2023-05-15T21:25:26.465Z,39.93
2023-05-15T21:28:29.342Z,40.21
2023-05-15T21:31:31.757Z,40.56
2023-05-15T21:34:34.005Z,40.79
2023-05-15T21:37:36.475Z,40.95
2023-05-15T21:40:38.761Z,41.18
2023-05-15T21:43:40.957Z,41.48
2023-05-15T21:46:43.051Z,41.53
2023-05-15T21:49:44.992Z,41.70
2023-05-15T21:52:49.918Z,42.03
2023-05-15T21:55:59.526Z,42.20
2023-05-15T21:59:01.421Z,42.24
2023-05-15T22:04:17.619Z,42.68
2023-05-15T22:07:19.831Z,42.65
2023-05-15T22:10:22.874Z,42.75
2023-05-15T22:13:25.286Z,42.78
2023-05-15T22:16:27.777Z,42.90
2023-05-15T22:19:33.478Z,43.03
2023-05-15T22:22:36.522Z,43.18
2023-05-15T22:25:38.813Z,43.29
2023-05-15T22:28:42.353Z,43.63
2023-05-15T22:31:44.509Z,43.97
2023-05-15T22:34:46.803Z,44.22
2023-05-15T22:37:49.660Z,44.35
2023-05-15T22:40:53.012Z,44.52
2023-05-15T22:43:55.039Z,44.55
2023-05-15T22:46:57.681Z,44.71
2023-05-15T22:50:00.051Z,44.82
2023-05-15T22:53:02.194Z,45.02
2023-05-15T22:56:04.585Z,45.09
2023-05-15T22:59:07.164Z,45.27
2023-05-15T23:02:09.604Z,45.33
2023-05-15T23:05:11.988Z,45.48
2023-05-15T23:08:14.152Z,45.76
2023-05-15T23:11:16.525Z,46.06
2023-05-15T23:14:18.805Z,46.14
2023-05-15T23:17:23.077Z,46.24
2023-05-15T23:20:26.475Z,46.28
2023-05-15T23:23:28.920Z,46.41
2023-05-15T23:26:30.970Z,46.64
2023-05-15T23:29:34.152Z,46.88
2023-05-15T23:32:36.281Z,47.20
2023-05-15T23:35:38.605Z,47.28
2023-05-15T23:38:40.670Z,47.46
2023-05-15T23:41:42.728Z,47.76
2023-05-15T23:44:45.036Z,48.06
2023-05-15T23:47:47.163Z,48.16
2023-05-15T23:50:49.960Z,48.22
2023-05-15T23:53:51.902Z,48.30
2023-05-15T23:56:53.995Z,48.42
2023-05-15T23:59:56.418Z,48.40
